sensor_id;sensor_type;location;lat;lon;timestamp;noise_LAeq;noise_LA_min;noise_LA_max;noise_LA01;noise_LA95
56099;Laerm;44276;49.534;6.378;2023-03-17T00:01:57;40.85;36.45;46.28;;
56099;Laerm;44276;49.534;6.378;2023-03-17T00:04:26;40.01;35.94;43.68;;
56099;Laerm;44276;49.534;6.378;2023-03-17T00:06:55;39.99;36.69;42.41;;
56099;Laerm;44276;49.534;6.378;2023-03-17T00:09:23;40.82;36.69;45.97;;
56099;Laerm;44276;49.534;6.378;2023-03-17T00:11:52;40.18;37.12;43.90;;
56099;Laerm;44276;49.534;6.378;2023-03-17T00:14:21;40.07;36.91;50.79;;
56099;Laerm;44276;49.534;6.378;2023-03-17T00:16:50;40.50;37.32;45.72;;
56099;Laerm;44276;49.534;6.378;2023-03-17T00:19:27;41.45;37.70;46.66;;
56099;Laerm;44276;49.534;6.378;2023-03-17T00:21:57;40.74;37.32;52.34;;
56099;Laerm;44276;49.534;6.378;2023-03-17T00:24:26;40.22;37.12;43.04;;
56099;Laerm;44276;49.534;6.378;2023-03-17T00:26:55;39.88;37.12;41.96;;
56099;Laerm;44276;49.534;6.378;2023-03-17T00:29:25;39.82;36.45;41.68;;
56099;Laerm;44276;49.534;6.378;2023-03-17T00:31:55;39.84;36.45;42.47;;
56099;Laerm;44276;49.534;6.378;2023-03-17T00:34:24;39.94;36.20;44.47;;
56099;Laerm;44276;49.534;6.378;2023-03-17T00:36:53;41.40;36.91;53.53;;
56099;Laerm;44276;49.534;6.378;2023-03-17T00:39:21;40.21;36.69;45.48;;
56099;Laerm;44276;49.534;6.378;2023-03-17T00:41:51;39.80;36.20;42.76;;
56099;Laerm;44276;49.534;6.378;2023-03-17T00:44:19;39.87;36.20;41.89;;
56099;Laerm;44276;49.534;6.378;2023-03-17T00:46:49;40.27;36.91;47.24;;
56099;Laerm;44276;49.534;6.378;2023-03-17T00:49:20;39.83;36.69;42.16;;
56099;Laerm;44276;49.534;6.378;2023-03-17T00:51:50;39.82;36.69;42.03;;
56099;Laerm;44276;49.534;6.378;2023-03-17T00:54:19;39.82;36.69;41.75;;
56099;Laerm;44276;49.534;6.378;2023-03-17T00:56:50;39.78;36.45;42.29;;
56099;Laerm;44276;49.534;6.378;2023-03-17T00:59:25;39.80;36.69;43.72;;
56099;Laerm;44276;49.534;6.378;2023-03-17T01:02:26;39.90;36.45;43.72;;
56099;Laerm;44276;49.534;6.378;2023-03-17T01:04:56;41.25;36.69;50.92;;
56099;Laerm;44276;49.534;6.378;2023-03-17T01:07:32;39.86;36.20;42.59;;
56099;Laerm;44276;49.534;6.378;2023-03-17T01:10:01;39.82;36.20;42.03;;
56099;Laerm;44276;49.534;6.378;2023-03-17T01:12:30;40.52;36.20;50.77;;
56099;Laerm;44276;49.534;6.378;2023-03-17T01:14:58;40.51;36.20;48.36;;
56099;Laerm;44276;49.534;6.378;2023-03-17T01:17:28;39.90;36.91;42.03;;
56099;Laerm;44276;49.534;6.378;2023-03-17T01:19:56;41.14;37.12;51.47;;
56099;Laerm;44276;49.534;6.378;2023-03-17T01:22:25;41.27;36.69;51.79;;
56099;Laerm;44276;49.534;6.378;2023-03-17T01:24:53;39.91;36.69;42.47;;
56099;Laerm;44276;49.534;6.378;2023-03-17T01:27:21;40.15;36.69;43.68;;
56099;Laerm;44276;49.534;6.378;2023-03-17T01:29:52;40.22;37.35;45.27;;
56099;Laerm;44276;49.534;6.378;2023-03-17T01:32:21;40.25;37.32;43.81;;
56099;Laerm;44276;49.534;6.378;2023-03-17T01:34:50;40.13;37.52;42.03;;
56099;Laerm;44276;49.534;6.378;2023-03-17T01:37:19;42.29;37.52;54.88;;
56099;Laerm;44276;49.534;6.378;2023-03-17T01:39:47;40.21;37.32;42.16;;
56099;Laerm;44276;49.534;6.378;2023-03-17T01:42:15;40.41;37.52;44.03;;
56099;Laerm;44276;49.534;6.378;2023-03-17T01:45:00;40.39;37.52;43.81;;
56099;Laerm;44276;49.534;6.378;2023-03-17T01:47:29;40.21;37.70;42.16;;
56099;Laerm;44276;49.534;6.378;2023-03-17T01:50:04;40.75;37.12;48.37;;
56099;Laerm;44276;49.534;6.378;2023-03-17T01:52:35;42.38;37.88;52.68;;
56099;Laerm;44276;49.534;6.378;2023-03-17T01:55:09;40.35;37.88;42.71;;
56099;Laerm;44276;49.534;6.378;2023-03-17T01:57:42;40.46;37.32;42.98;;
56099;Laerm;44276;49.534;6.378;2023-03-17T02:00:15;42.26;37.52;54.01;;
56099;Laerm;44276;49.534;6.378;2023-03-17T02:02:47;41.78;37.88;51.92;;
56099;Laerm;44276;49.534;6.378;2023-03-17T02:05:22;40.35;38.21;46.93;;
56099;Laerm;44276;49.534;6.378;2023-03-17T02:07:52;41.08;37.88;46.25;;
56099;Laerm;44276;49.534;6.378;2023-03-17T02:10:24;41.41;38.21;49.16;;
56099;Laerm;44276;49.534;6.378;2023-03-17T02:12:56;40.64;38.21;45.45;;
56099;Laerm;44276;49.534;6.378;2023-03-17T02:15:36;40.79;38.05;45.07;;
56099;Laerm;44276;49.534;6.378;2023-03-17T02:18:05;40.58;38.21;44.27;;
56099;Laerm;44276;49.534;6.378;2023-03-17T02:21:31;40.50;38.05;42.22;;
56099;Laerm;44276;49.534;6.378;2023-03-17T02:24:06;41.17;38.21;49.67;;
56099;Laerm;44276;49.534;6.378;2023-03-17T02:26:36;42.03;38.05;56.93;;
56099;Laerm;44276;49.534;6.378;2023-03-17T02:29:05;40.84;38.52;44.54;;
56099;Laerm;44276;49.534;6.378;2023-03-17T02:31:33;40.82;38.47;43.49;;
56099;Laerm;44276;49.534;6.378;2023-03-17T02:34:01;41.36;38.21;47.28;;
56099;Laerm;44276;49.534;6.378;2023-03-17T02:36:31;40.74;38.37;42.53;;
56099;Laerm;44276;49.534;6.378;2023-03-17T02:38:59;40.97;38.67;46.13;;
56099;Laerm;44276;49.534;6.378;2023-03-17T02:41:28;41.22;38.37;48.02;;
56099;Laerm;44276;49.534;6.378;2023-03-17T02:43:56;40.89;38.52;43.86;;
56099;Laerm;44276;49.534;6.378;2023-03-17T02:46:25;40.87;37.88;43.81;;
56099;Laerm;44276;49.534;6.378;2023-03-17T02:48:54;40.81;38.21;42.53;;
56099;Laerm;44276;49.534;6.378;2023-03-17T02:51:23;41.87;38.67;51.86;;
56099;Laerm;44276;49.534;6.378;2023-03-17T02:53:52;40.97;38.52;42.53;;
56099;Laerm;44276;49.534;6.378;2023-03-17T02:56:21;41.05;38.95;43.76;;
56099;Laerm;44276;49.534;6.378;2023-03-17T02:58:49;41.20;38.21;46.07;;
56099;Laerm;44276;49.534;6.378;2023-03-17T03:01:17;41.27;38.81;45.33;;
56099;Laerm;44276;49.534;6.378;2023-03-17T03:03:47;42.07;39.08;50.34;;
56099;Laerm;44276;49.534;6.378;2023-03-17T03:06:15;40.99;38.21;42.65;;
56099;Laerm;44276;49.534;6.378;2023-03-17T03:08:43;41.59;38.21;47.50;;
56099;Laerm;44276;49.534;6.378;2023-03-17T03:11:13;41.19;38.95;47.26;;
56099;Laerm;44276;49.534;6.378;2023-03-17T03:13:41;41.07;38.81;43.24;;
56099;Laerm;44276;49.534;6.378;2023-03-17T03:16:09;42.66;38.81;57.41;;
56099;Laerm;44276;49.534;6.378;2023-03-17T03:18:38;41.27;38.95;44.23;;
56099;Laerm;44276;49.534;6.378;2023-03-17T03:21:07;41.52;38.67;49.78;;
56099;Laerm;44276;49.534;6.378;2023-03-17T03:23:36;41.43;38.95;44.73;;
56099;Laerm;44276;49.534;6.378;2023-03-17T03:26:04;41.51;38.67;46.84;;
56099;Laerm;44276;49.534;6.378;2023-03-17T03:28:35;41.21;38.67;44.23;;
56099;Laerm;44276;49.534;6.378;2023-03-17T03:31:03;41.64;39.08;48.38;;
56099;Laerm;44276;49.534;6.378;2023-03-17T03:33:31;41.29;38.81;46.59;;
56099;Laerm;44276;49.534;6.378;2023-03-17T03:36:00;41.33;39.21;44.73;;
56099;Laerm;44276;49.534;6.378;2023-03-17T03:38:29;41.25;39.08;44.43;;
56099;Laerm;44276;49.534;6.378;2023-03-17T03:40:57;41.35;39.21;44.23;;
56099;Laerm;44276;49.534;6.378;2023-03-17T03:43:25;42.13;39.46;50.55;;
56099;Laerm;44276;49.534;6.378;2023-03-17T03:45:55;41.76;39.21;45.20;;
56099;Laerm;44276;49.534;6.378;2023-03-17T03:48:23;41.31;38.95;45.69;;
56099;Laerm;44276;49.534;6.378;2023-03-17T03:50:56;41.61;39.34;45.30;;
56099;Laerm;44276;49.534;6.378;2023-03-17T03:53:26;41.28;39.08;43.54;;
56099;Laerm;44276;49.534;6.378;2023-03-17T03:55:55;41.51;39.21;44.19;;
56099;Laerm;44276;49.534;6.378;2023-03-17T03:58:23;41.40;39.21;43.72;;
56099;Laerm;44276;49.534;6.378;2023-03-17T04:00:51;41.91;39.78;46.89;;
56099;Laerm;44276;49.534;6.378;2023-03-17T04:03:21;41.66;38.52;44.76;;
56099;Laerm;44276;49.534;6.378;2023-03-17T04:05:49;42.32;39.58;47.50;;
56099;Laerm;44276;49.534;6.378;2023-03-17T04:08:17;41.74;39.78;44.73;;
56099;Laerm;44276;49.534;6.378;2023-03-17T04:10:45;42.03;39.34;44.73;;
56099;Laerm;44276;49.534;6.378;2023-03-17T04:13:14;41.68;39.46;45.27;;
56099;Laerm;44276;49.534;6.378;2023-03-17T04:15:42;42.16;39.70;45.99;;
56099;Laerm;44276;49.534;6.378;2023-03-17T04:18:10;41.83;39.70;45.17;;
56099;Laerm;44276;49.534;6.378;2023-03-17T04:20:40;42.30;39.23;49.40;;
56099;Laerm;44276;49.534;6.378;2023-03-17T04:23:08;41.84;39.21;45.69;;
56099;Laerm;44276;49.534;6.378;2023-03-17T04:25:36;41.83;39.58;45.69;;
56099;Laerm;44276;49.534;6.378;2023-03-17T04:28:05;42.06;39.81;46.89;;
56099;Laerm;44276;49.534;6.378;2023-03-17T04:30:35;42.11;39.68;45.69;;
56099;Laerm;44276;49.534;6.378;2023-03-17T04:33:05;41.92;39.70;46.13;;
56099;Laerm;44276;49.534;6.378;2023-03-17T04:35:34;41.93;39.70;44.73;;
56099;Laerm;44276;49.534;6.378;2023-03-17T04:38:04;41.91;39.81;45.30;;
56099;Laerm;44276;49.534;6.378;2023-03-17T04:40:33;41.90;39.81;44.35;;
56099;Laerm;44276;49.534;6.378;2023-03-17T04:43:02;41.86;39.46;43.90;;
56099;Laerm;44276;49.534;6.378;2023-03-17T04:45:32;41.91;40.03;44.35;;
56099;Laerm;44276;49.534;6.378;2023-03-17T04:48:01;41.91;39.70;49.41;;
56099;Laerm;44276;49.534;6.378;2023-03-17T04:50:30;42.18;39.58;45.11;;
56099;Laerm;44276;49.534;6.378;2023-03-17T04:52:59;42.27;40.23;46.93;;
56099;Laerm;44276;49.534;6.378;2023-03-17T04:55:30;41.99;39.58;44.31;;
56099;Laerm;44276;49.534;6.378;2023-03-17T04:58:02;41.85;40.03;43.54;;
56099;Laerm;44276;49.534;6.378;2023-03-17T05:00:31;41.98;39.99;44.19;;
56099;Laerm;44276;49.534;6.378;2023-03-17T05:03:05;42.03;39.92;44.58;;
56099;Laerm;44276;49.534;6.378;2023-03-17T05:05:52;41.99;40.03;44.51;;
56099;Laerm;44276;49.534;6.378;2023-03-17T05:08:21;41.91;39.81;43.63;;
56099;Laerm;44276;49.534;6.378;2023-03-17T05:10:51;42.11;39.92;47.12;;
56099;Laerm;44276;49.534;6.378;2023-03-17T05:13:21;42.15;40.13;45.01;;
56099;Laerm;44276;49.534;6.378;2023-03-17T05:15:52;41.91;40.23;43.39;;
56099;Laerm;44276;49.534;6.378;2023-03-17T05:18:23;41.81;39.92;43.09;;
56099;Laerm;44276;49.534;6.378;2023-03-17T05:20:52;42.00;40.23;44.19;;
56099;Laerm;44276;49.534;6.378;2023-03-17T05:23:21;42.05;40.23;46.05;;
56099;Laerm;44276;49.534;6.378;2023-03-17T05:25:52;41.75;40.03;43.14;;
56099;Laerm;44276;49.534;6.378;2023-03-17T05:28:21;42.20;40.23;45.57;;
56099;Laerm;44276;49.534;6.378;2023-03-17T05:30:50;41.91;39.58;43.94;;
56099;Laerm;44276;49.534;6.378;2023-03-17T05:33:20;41.81;40.03;43.99;;
56099;Laerm;44276;49.534;6.378;2023-03-17T05:35:49;41.96;39.81;45.01;;
56099;Laerm;44276;49.534;6.378;2023-03-17T05:38:18;41.84;40.23;44.31;;
56099;Laerm;44276;49.534;6.378;2023-03-17T05:40:50;41.89;40.23;43.54;;
56099;Laerm;44276;49.534;6.378;2023-03-17T05:43:20;41.98;39.70;44.11;;
56099;Laerm;44276;49.534;6.378;2023-03-17T05:45:50;41.87;40.18;43.63;;
56099;Laerm;44276;49.534;6.378;2023-03-17T05:48:22;41.90;40.13;44.03;;
56099;Laerm;44276;49.534;6.378;2023-03-17T05:50:51;42.03;40.23;44.54;;
56099;Laerm;44276;49.534;6.378;2023-03-17T05:53:19;41.76;40.03;43.09;;
56099;Laerm;44276;49.534;6.378;2023-03-17T05:55:48;41.80;39.92;43.09;;
56099;Laerm;44276;49.534;6.378;2023-03-17T05:58:22;41.96;40.33;44.83;;
56099;Laerm;44276;49.534;6.378;2023-03-17T06:00:51;41.87;40.03;43.44;;
56099;Laerm;44276;49.534;6.378;2023-03-17T06:03:19;41.82;40.03;43.49;;
56099;Laerm;44276;49.534;6.378;2023-03-17T06:05:51;41.77;40.03;43.39;;
56099;Laerm;44276;49.534;6.378;2023-03-17T06:08:21;41.88;40.18;43.39;;
56099;Laerm;44276;49.534;6.378;2023-03-17T06:10:49;41.80;39.92;43.14;;
56099;Laerm;44276;49.534;6.378;2023-03-17T06:13:19;41.81;39.92;44.73;;
56099;Laerm;44276;49.534;6.378;2023-03-17T06:15:49;41.93;39.92;43.86;;
56099;Laerm;44276;49.534;6.378;2023-03-17T06:18:18;41.88;40.33;43.29;;
56099;Laerm;44276;49.534;6.378;2023-03-17T06:20:47;41.96;40.13;44.23;;
56099;Laerm;44276;49.534;6.378;2023-03-17T06:23:15;41.81;40.18;43.19;;
56099;Laerm;44276;49.534;6.378;2023-03-17T06:25:45;41.90;40.13;43.29;;
56099;Laerm;44276;49.534;6.378;2023-03-17T06:28:13;42.00;40.23;44.03;;
56099;Laerm;44276;49.534;6.378;2023-03-17T06:30:42;41.97;40.33;44.15;;
56099;Laerm;44276;49.534;6.378;2023-03-17T06:33:11;42.00;40.03;43.90;;
56099;Laerm;44276;49.534;6.378;2023-03-17T06:35:40;42.03;40.53;45.57;;
56099;Laerm;44276;49.534;6.378;2023-03-17T06:38:08;41.93;40.03;43.19;;
56099;Laerm;44276;49.534;6.378;2023-03-17T06:40:37;41.91;40.33;43.63;;
56099;Laerm;44276;49.534;6.378;2023-03-17T06:43:05;41.97;40.03;43.29;;
56099;Laerm;44276;49.534;6.378;2023-03-17T06:45:33;42.00;40.03;44.03;;
56099;Laerm;44276;49.534;6.378;2023-03-17T06:48:03;41.99;40.53;44.15;;
56099;Laerm;44276;49.534;6.378;2023-03-17T06:50:32;41.87;40.13;43.14;;
56099;Laerm;44276;49.534;6.378;2023-03-17T06:53:01;41.98;40.43;43.49;;
56099;Laerm;44276;49.534;6.378;2023-03-17T06:55:29;42.00;40.62;43.34;;
56099;Laerm;44276;49.534;6.378;2023-03-17T06:57:58;41.97;40.33;43.29;;
56099;Laerm;44276;49.534;6.378;2023-03-17T07:00:26;42.01;39.92;43.34;;
56099;Laerm;44276;49.534;6.378;2023-03-17T07:02:54;42.03;40.33;43.39;;
56099;Laerm;44276;49.534;6.378;2023-03-17T07:05:25;41.98;40.53;43.19;;
56099;Laerm;44276;49.534;6.378;2023-03-17T07:07:53;41.98;40.33;43.34;;
56099;Laerm;44276;49.534;6.378;2023-03-17T07:10:21;42.07;40.53;43.90;;
56099;Laerm;44276;49.534;6.378;2023-03-17T07:12:50;42.05;40.62;43.14;;
56099;Laerm;44276;49.534;6.378;2023-03-17T07:15:18;42.02;40.62;43.14;;
56099;Laerm;44276;49.534;6.378;2023-03-17T07:17:46;42.06;40.03;43.39;;
56099;Laerm;44276;49.534;6.378;2023-03-17T07:20:15;42.10;40.53;43.63;;
56099;Laerm;44276;49.534;6.378;2023-03-17T07:22:45;42.07;40.62;43.29;;
56099;Laerm;44276;49.534;6.378;2023-03-17T07:25:13;42.05;40.33;43.44;;
56099;Laerm;44276;49.534;6.378;2023-03-17T07:27:41;42.08;40.53;43.29;;
56099;Laerm;44276;49.534;6.378;2023-03-17T07:30:11;42.09;40.43;43.49;;
56099;Laerm;44276;49.534;6.378;2023-03-17T07:32:41;42.12;40.43;44.07;;
56099;Laerm;44276;49.534;6.378;2023-03-17T07:35:09;42.06;40.43;43.34;;
56099;Laerm;44276;49.534;6.378;2023-03-17T07:37:37;42.10;40.62;43.54;;
56099;Laerm;44276;49.534;6.378;2023-03-17T07:40:10;42.04;40.43;43.34;;
56099;Laerm;44276;49.534;6.378;2023-03-17T07:42:38;42.08;40.33;43.86;;
56099;Laerm;44276;49.534;6.378;2023-03-17T07:45:08;41.99;40.33;43.24;;
56099;Laerm;44276;49.534;6.378;2023-03-17T07:47:36;42.03;40.13;44.19;;
56099;Laerm;44276;49.534;6.378;2023-03-17T07:50:05;41.96;40.33;43.19;;
56099;Laerm;44276;49.534;6.378;2023-03-17T07:52:34;41.99;40.13;44.23;;
56099;Laerm;44276;49.534;6.378;2023-03-17T07:55:02;42.00;40.33;46.20;;
56099;Laerm;44276;49.534;6.378;2023-03-17T07:57:32;41.98;39.92;43.39;;
56099;Laerm;44276;49.534;6.378;2023-03-17T08:00:00;41.94;40.43;43.14;;
56099;Laerm;44276;49.534;6.378;2023-03-17T08:02:30;41.92;40.53;43.68;;
56099;Laerm;44276;49.534;6.378;2023-03-17T08:04:58;42.08;40.53;44.23;;
56099;Laerm;44276;49.534;6.378;2023-03-17T08:07:27;41.95;40.13;52.08;;
56099;Laerm;44276;49.534;6.378;2023-03-17T08:09:56;41.86;40.13;43.58;;
56099;Laerm;44276;49.534;6.378;2023-03-17T08:12:25;41.91;40.03;43.63;;
56099;Laerm;44276;49.534;6.378;2023-03-17T08:14:55;41.78;40.03;43.19;;
56099;Laerm;44276;49.534;6.378;2023-03-17T08:17:23;41.87;40.03;43.90;;
56099;Laerm;44276;49.534;6.378;2023-03-17T08:19:53;41.70;40.03;44.90;;
56099;Laerm;44276;49.534;6.378;2023-03-17T08:22:22;41.93;39.92;44.76;;
56099;Laerm;44276;49.534;6.378;2023-03-17T08:24:50;41.84;40.03;44.23;;
56099;Laerm;44276;49.534;6.378;2023-03-17T08:27:19;41.76;39.34;46.25;;
56099;Laerm;44276;49.534;6.378;2023-03-17T08:29:48;41.73;39.92;45.42;;
56099;Laerm;44276;49.534;6.378;2023-03-17T08:32:18;41.85;39.58;46.87;;
56099;Laerm;44276;49.534;6.378;2023-03-17T08:34:46;41.81;39.81;44.07;;
56099;Laerm;44276;49.534;6.378;2023-03-17T08:37:15;41.64;39.92;43.54;;
56099;Laerm;44276;49.534;6.378;2023-03-17T08:39:43;41.83;39.92;43.68;;
56099;Laerm;44276;49.534;6.378;2023-03-17T08:42:11;41.79;39.58;44.51;;
56099;Laerm;44276;49.534;6.378;2023-03-17T08:44:39;41.68;39.81;43.39;;
56099;Laerm;44276;49.534;6.378;2023-03-17T08:47:10;41.77;39.81;43.80;;
56099;Laerm;44276;49.534;6.378;2023-03-17T08:49:39;41.52;39.34;42.93;;
56099;Laerm;44276;49.534;6.378;2023-03-17T08:52:08;41.48;39.58;43.34;;
56099;Laerm;44276;49.534;6.378;2023-03-17T08:54:36;41.43;39.34;43.09;;
56099;Laerm;44276;49.534;6.378;2023-03-17T08:57:05;41.42;39.08;43.29;;
56099;Laerm;44276;49.534;6.378;2023-03-17T08:59:33;41.49;39.34;44.47;;
56099;Laerm;44276;49.534;6.378;2023-03-17T09:02:01;41.54;38.21;45.86;;
56099;Laerm;44276;49.534;6.378;2023-03-17T09:04:29;41.56;39.34;44.07;;
56099;Laerm;44276;49.534;6.378;2023-03-17T09:06:59;41.43;39.21;43.72;;
56099;Laerm;44276;49.534;6.378;2023-03-17T09:09:30;41.71;39.08;48.98;;
56099;Laerm;44276;49.534;6.378;2023-03-17T09:12:01;40.99;38.52;43.81;;
56099;Laerm;44276;49.534;6.378;2023-03-17T09:14:32;41.22;37.70;45.14;;
56099;Laerm;44276;49.534;6.378;2023-03-17T09:17:09;41.11;38.37;43.94;;
56099;Laerm;44276;49.534;6.378;2023-03-17T09:19:37;40.98;38.05;44.23;;
56099;Laerm;44276;49.534;6.378;2023-03-17T09:22:12;40.83;38.02;43.68;;
56099;Laerm;44276;49.534;6.378;2023-03-17T09:24:41;41.33;38.52;46.05;;
56099;Laerm;44276;49.534;6.378;2023-03-17T09:27:12;40.89;37.12;42.88;;
56099;Laerm;44276;49.534;6.378;2023-03-17T09:29:41;40.99;38.05;44.03;;
56099;Laerm;44276;49.534;6.378;2023-03-17T09:32:09;41.55;38.21;46.82;;
56099;Laerm;44276;49.534;6.378;2023-03-17T09:34:37;40.88;38.05;42.65;;
56099;Laerm;44276;49.534;6.378;2023-03-17T09:37:07;41.16;38.52;44.15;;
56099;Laerm;44276;49.534;6.378;2023-03-17T09:39:36;41.30;37.88;43.94;;
56099;Laerm;44276;49.534;6.378;2023-03-17T09:42:18;41.05;38.18;43.72;;
56099;Laerm;44276;49.534;6.378;2023-03-17T09:45:09;41.10;38.37;44.76;;
56099;Laerm;44276;49.534;6.378;2023-03-17T09:48:02;41.24;36.20;44.83;;
56099;Laerm;44276;49.534;6.378;2023-03-17T09:50:43;41.15;37.12;45.77;;
56099;Laerm;44276;49.534;6.378;2023-03-17T09:53:19;41.38;38.52;46.10;;
56099;Laerm;44276;49.534;6.378;2023-03-17T09:55:54;41.56;37.88;46.30;;
56099;Laerm;44276;49.534;6.378;2023-03-17T09:58:30;41.49;37.52;45.04;;
56099;Laerm;44276;49.534;6.378;2023-03-17T10:00:59;41.38;38.05;46.43;;
56099;Laerm;44276;49.534;6.378;2023-03-17T10:03:28;42.10;38.67;47.76;;
56099;Laerm;44276;49.534;6.378;2023-03-17T10:06:13;42.03;38.37;45.63;;
56099;Laerm;44276;49.534;6.378;2023-03-17T10:08:52;41.62;38.67;43.77;;
56099;Laerm;44276;49.534;6.378;2023-03-17T10:11:36;41.61;38.21;45.17;;
56099;Laerm;44276;49.534;6.378;2023-03-17T10:14:21;42.20;38.81;52.50;;
56099;Laerm;44276;49.534;6.378;2023-03-17T10:16:59;41.90;38.05;47.70;;
56099;Laerm;44276;49.534;6.378;2023-03-17T10:19:37;42.17;38.95;46.35;;
56099;Laerm;44276;49.534;6.378;2023-03-17T10:22:16;42.51;38.52;54.67;;
56099;Laerm;44276;49.534;6.378;2023-03-17T10:24:54;43.15;38.37;54.74;;
56099;Laerm;44276;49.534;6.378;2023-03-17T10:27:24;43.46;39.34;55.48;;
56099;Laerm;44276;49.534;6.378;2023-03-17T10:29:53;42.02;38.81;46.87;;
56099;Laerm;44276;49.534;6.378;2023-03-17T10:32:22;41.95;36.69;45.66;;
56099;Laerm;44276;49.534;6.378;2023-03-17T10:34:51;42.02;39.34;47.95;;
56099;Laerm;44276;49.534;6.378;2023-03-17T10:37:23;42.31;36.91;49.35;;
56099;Laerm;44276;49.534;6.378;2023-03-17T10:39:56;42.53;38.21;50.14;;
56099;Laerm;44276;49.534;6.378;2023-03-17T10:42:27;42.14;38.67;47.02;;
56099;Laerm;44276;49.534;6.378;2023-03-17T10:44:57;42.40;39.08;48.81;;
56099;Laerm;44276;49.534;6.378;2023-03-17T10:47:32;42.13;39.21;46.76;;
56099;Laerm;44276;49.534;6.378;2023-03-17T10:50:17;42.35;39.46;50.70;;
56099;Laerm;44276;49.534;6.378;2023-03-17T10:52:52;44.56;39.46;62.60;;
56099;Laerm;44276;49.534;6.378;2023-03-17T10:55:28;43.02;39.34;57.54;;
56099;Laerm;44276;49.534;6.378;2023-03-17T10:58:03;41.99;38.21;45.77;;
56099;Laerm;44276;49.534;6.378;2023-03-17T11:00:34;43.26;39.81;52.45;;
56099;Laerm;44276;49.534;6.378;2023-03-17T11:03:15;42.25;39.70;48.29;;
56099;Laerm;44276;49.534;6.378;2023-03-17T11:05:55;42.09;39.46;43.81;;
56099;Laerm;44276;49.534;6.378;2023-03-17T11:08:24;42.54;39.58;45.83;;
56099;Laerm;44276;49.534;6.378;2023-03-17T11:10:58;42.36;39.92;45.33;;
56099;Laerm;44276;49.534;6.378;2023-03-17T11:13:29;42.40;39.81;45.54;;
56099;Laerm;44276;49.534;6.378;2023-03-17T11:16:08;42.14;37.70;44.97;;
56099;Laerm;44276;49.534;6.378;2023-03-17T11:18:39;41.85;37.52;44.80;;
56099;Laerm;44276;49.534;6.378;2023-03-17T11:21:09;42.04;38.81;47.20;;
56099;Laerm;44276;49.534;6.378;2023-03-17T11:23:48;42.53;39.70;47.98;;
56099;Laerm;44276;49.534;6.378;2023-03-17T11:26:59;43.52;38.74;59.69;;
56099;Laerm;44276;49.534;6.378;2023-03-17T11:29:48;42.74;38.95;53.15;;
56099;Laerm;44276;49.534;6.378;2023-03-17T11:32:27;42.07;38.37;48.97;;
56099;Laerm;44276;49.534;6.378;2023-03-17T11:35:17;42.63;38.37;56.42;;
56099;Laerm;44276;49.534;6.378;2023-03-17T11:38:07;41.64;38.95;44.35;;
56099;Laerm;44276;49.534;6.378;2023-03-17T11:41:05;42.32;37.70;51.62;;
56099;Laerm;44276;49.534;6.378;2023-03-17T11:43:53;42.89;37.32;57.41;;
56099;Laerm;44276;49.534;6.378;2023-03-17T11:46:29;41.95;39.34;55.35;;
56099;Laerm;44276;49.534;6.378;2023-03-17T11:49:10;41.85;38.52;45.07;;
56099;Laerm;44276;49.534;6.378;2023-03-17T11:51:55;42.63;39.34;48.21;;
56099;Laerm;44276;49.534;6.378;2023-03-17T11:54:41;43.54;37.70;56.10;;
56099;Laerm;44276;49.534;6.378;2023-03-17T11:57:19;43.74;38.81;58.00;;
56099;Laerm;44276;49.534;6.378;2023-03-17T11:59:53;43.95;38.21;57.24;;
56099;Laerm;44276;49.534;6.378;2023-03-17T12:02:30;42.56;38.37;46.76;;
56099;Laerm;44276;49.534;6.378;2023-03-17T12:05:07;42.29;38.67;50.28;;
56099;Laerm;44276;49.534;6.378;2023-03-17T12:07:42;42.36;39.34;46.91;;
56099;Laerm;44276;49.534;6.378;2023-03-17T12:10:19;42.37;38.67;46.71;;
56099;Laerm;44276;49.534;6.378;2023-03-17T12:12:51;44.38;36.91;60.38;;
56099;Laerm;44276;49.534;6.378;2023-03-17T12:15:31;42.44;38.05;49.44;;
56099;Laerm;44276;49.534;6.378;2023-03-17T12:18:09;43.02;37.70;51.30;;
56099;Laerm;44276;49.534;6.378;2023-03-17T12:20:49;42.25;37.88;48.99;;
56099;Laerm;44276;49.534;6.378;2023-03-17T12:23:27;42.89;38.67;53.95;;
56099;Laerm;44276;49.534;6.378;2023-03-17T12:26:04;42.57;39.34;49.32;;
56099;Laerm;44276;49.534;6.378;2023-03-17T12:28:45;42.74;39.21;46.52;;
56099;Laerm;44276;49.534;6.378;2023-03-17T12:31:22;43.19;40.53;48.88;;
56099;Laerm;44276;49.534;6.378;2023-03-17T12:33:59;43.02;40.23;51.33;;
56099;Laerm;44276;49.534;6.378;2023-03-17T12:36:31;43.29;40.71;48.40;;
56099;Laerm;44276;49.534;6.378;2023-03-17T12:39:08;43.32;41.06;48.15;;
56099;Laerm;44276;49.534;6.378;2023-03-17T12:42:10;43.49;40.98;48.07;;
56099;Laerm;44276;49.534;6.378;2023-03-17T12:45:19;43.30;40.89;46.58;;
56099;Laerm;44276;49.534;6.378;2023-03-17T12:48:10;43.15;40.89;50.02;;
56099;Laerm;44276;49.534;6.378;2023-03-17T12:51:26;43.17;40.79;45.48;;
56099;Laerm;44276;49.534;6.378;2023-03-17T12:53:57;42.52;37.88;44.76;;
56099;Laerm;44276;49.534;6.378;2023-03-17T12:56:30;42.40;38.81;47.58;;
56099;Laerm;44276;49.534;6.378;2023-03-17T12:59:02;42.28;39.92;46.97;;
56099;Laerm;44276;49.534;6.378;2023-03-17T13:01:36;42.85;39.34;47.18;;
56099;Laerm;44276;49.534;6.378;2023-03-17T13:04:19;43.00;39.21;55.74;;
56099;Laerm;44276;49.534;6.378;2023-03-17T13:07:01;43.28;39.70;52.00;;
56099;Laerm;44276;49.534;6.378;2023-03-17T13:09:43;42.88;40.03;50.21;;
56099;Laerm;44276;49.534;6.378;2023-03-17T13:13:06;42.59;39.08;48.81;;
56099;Laerm;44276;49.534;6.378;2023-03-17T13:15:57;42.03;36.45;54.25;;
56099;Laerm;44276;49.534;6.378;2023-03-17T13:18:48;42.16;36.20;50.06;;
56099;Laerm;44276;49.534;6.378;2023-03-17T13:21:23;42.47;37.52;46.78;;
56099;Laerm;44276;49.534;6.378;2023-03-17T13:23:56;43.27;38.95;54.05;;
56099;Laerm;44276;49.534;6.378;2023-03-17T13:26:53;43.89;39.58;53.76;;
56099;Laerm;44276;49.534;6.378;2023-03-17T13:29:26;45.82;38.95;58.61;;
56099;Laerm;44276;49.534;6.378;2023-03-17T13:32:34;44.63;39.58;60.92;;
56099;Laerm;44276;49.534;6.378;2023-03-17T13:35:19;45.21;40.13;59.20;;
56099;Laerm;44276;49.534;6.378;2023-03-17T13:38:31;44.88;39.58;58.02;;
56099;Laerm;44276;49.534;6.378;2023-03-17T13:41:43;44.82;39.46;63.59;;
56099;Laerm;44276;49.534;6.378;2023-03-17T13:44:49;46.26;39.21;64.69;;
56099;Laerm;44276;49.534;6.378;2023-03-17T13:47:33;49.50;39.58;66.18;;
56099;Laerm;44276;49.534;6.378;2023-03-17T13:50:11;48.18;39.08;68.04;;
56099;Laerm;44276;49.534;6.378;2023-03-17T13:52:45;46.21;38.67;60.50;;
56099;Laerm;44276;49.534;6.378;2023-03-17T13:55:37;45.54;38.81;63.35;;
56099;Laerm;44276;49.534;6.378;2023-03-17T13:58:30;47.49;39.34;62.66;;
56099;Laerm;44276;49.534;6.378;2023-03-17T14:01:04;45.45;39.21;59.97;;
56099;Laerm;44276;49.534;6.378;2023-03-17T14:03:42;49.58;39.21;66.68;;
56099;Laerm;44276;49.534;6.378;2023-03-17T14:06:16;44.77;39.08;60.19;;
56099;Laerm;44276;49.534;6.378;2023-03-17T14:08:49;42.55;38.95;54.64;;
56099;Laerm;44276;49.534;6.378;2023-03-17T14:11:30;43.20;38.67;56.30;;
56099;Laerm;44276;49.534;6.378;2023-03-17T14:14:20;44.13;39.70;57.17;;
56099;Laerm;44276;49.534;6.378;2023-03-17T14:17:07;43.26;39.34;53.67;;
56099;Laerm;44276;49.534;6.378;2023-03-17T14:19:38;45.02;39.46;59.63;;